sensor_id;sensor_type;location;lat;lon;timestamp;P1;durP1;ratioP1;P2;durP2;ratioP2
11431;SDS011;5772;50.940;6.782;2022-08-21T00:00:33;126.60;;;121.47;;
11431;SDS011;5772;50.940;6.782;2022-08-21T00:03:00;126.70;;;121.57;;
11431;SDS011;5772;50.940;6.782;2022-08-21T00:05:29;117.00;;;112.20;;
11431;SDS011;5772;50.940;6.782;2022-08-21T00:07:55;130.90;;;125.93;;
11431;SDS011;5772;50.940;6.782;2022-08-21T00:10:21;110.57;;;106.20;;
11431;SDS011;5772;50.940;6.782;2022-08-21T00:12:48;108.20;;;103.77;;
11431;SDS011;5772;50.940;6.782;2022-08-21T00:15:14;124.57;;;119.57;;
11431;SDS011;5772;50.940;6.782;2022-08-21T00:17:42;161.03;;;154.83;;
11431;SDS011;5772;50.940;6.782;2022-08-21T00:20:09;170.03;;;163.57;;
11431;SDS011;5772;50.940;6.782;2022-08-21T00:22:36;167.23;;;160.83;;
11431;SDS011;5772;50.940;6.782;2022-08-21T00:25:01;137.80;;;132.30;;
11431;SDS011;5772;50.940;6.782;2022-08-21T00:27:27;140.50;;;135.07;;
11431;SDS011;5772;50.940;6.782;2022-08-21T00:29:54;176.10;;;169.53;;
11431;SDS011;5772;50.940;6.782;2022-08-21T00:32:20;148.30;;;142.43;;
11431;SDS011;5772;50.940;6.782;2022-08-21T00:34:46;140.07;;;134.30;;
11431;SDS011;5772;50.940;6.782;2022-08-21T00:37:11;143.80;;;137.93;;
11431;SDS011;5772;50.940;6.782;2022-08-21T00:39:37;100.17;;;95.90;;
11431;SDS011;5772;50.940;6.782;2022-08-21T00:42:02;88.80;;;84.90;;
11431;SDS011;5772;50.940;6.782;2022-08-21T00:44:28;80.20;;;76.60;;
11431;SDS011;5772;50.940;6.782;2022-08-21T00:46:54;60.80;;;58.10;;
11431;SDS011;5772;50.940;6.782;2022-08-21T00:49:20;56.53;;;53.53;;
11431;SDS011;5772;50.940;6.782;2022-08-21T00:51:47;61.80;;;59.03;;
11431;SDS011;5772;50.940;6.782;2022-08-21T00:54:14;58.73;;;56.13;;
11431;SDS011;5772;50.940;6.782;2022-08-21T00:56:40;62.37;;;59.53;;
11431;SDS011;5772;50.940;6.782;2022-08-21T00:59:06;54.00;;;51.03;;
11431;SDS011;5772;50.940;6.782;2022-08-21T01:01:31;60.00;;;57.17;;
11431;SDS011;5772;50.940;6.782;2022-08-21T01:03:58;62.37;;;59.67;;
11431;SDS011;5772;50.940;6.782;2022-08-21T01:06:24;74.80;;;71.43;;
11431;SDS011;5772;50.940;6.782;2022-08-21T01:08:49;104.07;;;99.87;;
11431;SDS011;5772;50.940;6.782;2022-08-21T01:11:15;147.80;;;141.70;;
11431;SDS011;5772;50.940;6.782;2022-08-21T01:13:40;165.73;;;159.27;;
11431;SDS011;5772;50.940;6.782;2022-08-21T01:16:08;180.80;;;173.83;;
11431;SDS011;5772;50.940;6.782;2022-08-21T01:18:34;126.40;;;121.30;;
11431;SDS011;5772;50.940;6.782;2022-08-21T01:21:05;71.30;;;67.80;;
11431;SDS011;5772;50.940;6.782;2022-08-21T01:23:32;103.53;;;98.97;;
11431;SDS011;5772;50.940;6.782;2022-08-21T01:25:58;69.67;;;66.57;;
11431;SDS011;5772;50.940;6.782;2022-08-21T01:28:23;62.47;;;59.73;;
11431;SDS011;5772;50.940;6.782;2022-08-21T01:30:49;76.47;;;73.20;;
11431;SDS011;5772;50.940;6.782;2022-08-21T01:33:15;94.80;;;90.57;;
11431;SDS011;5772;50.940;6.782;2022-08-21T01:35:41;110.73;;;106.20;;
11431;SDS011;5772;50.940;6.782;2022-08-21T01:38:08;93.10;;;89.13;;
11431;SDS011;5772;50.940;6.782;2022-08-21T01:40:33;124.50;;;119.17;;
11431;SDS011;5772;50.940;6.782;2022-08-21T01:42:59;88.13;;;84.33;;
11431;SDS011;5772;50.940;6.782;2022-08-21T01:45:24;71.77;;;68.63;;
11431;SDS011;5772;50.940;6.782;2022-08-21T01:47:50;80.00;;;76.57;;
11431;SDS011;5772;50.940;6.782;2022-08-21T01:50:16;93.87;;;89.93;;
11431;SDS011;5772;50.940;6.782;2022-08-21T01:52:42;104.33;;;99.97;;
11431;SDS011;5772;50.940;6.782;2022-08-21T01:55:09;93.27;;;89.13;;
11431;SDS011;5772;50.940;6.782;2022-08-21T01:57:36;78.50;;;75.13;;
11431;SDS011;5772;50.940;6.782;2022-08-21T02:00:03;77.33;;;73.80;;
11431;SDS011;5772;50.940;6.782;2022-08-21T02:02:30;69.33;;;65.80;;
11431;SDS011;5772;50.940;6.782;2022-08-21T02:04:55;97.43;;;93.17;;
11431;SDS011;5772;50.940;6.782;2022-08-21T02:07:20;97.70;;;93.33;;
11431;SDS011;5772;50.940;6.782;2022-08-21T02:09:46;101.80;;;97.50;;
11431;SDS011;5772;50.940;6.782;2022-08-21T02:12:12;102.10;;;97.80;;
11431;SDS011;5772;50.940;6.782;2022-08-21T02:14:38;96.90;;;92.83;;
11431;SDS011;5772;50.940;6.782;2022-08-21T02:17:03;152.43;;;145.97;;
11431;SDS011;5772;50.940;6.782;2022-08-21T02:19:29;167.73;;;160.80;;
11431;SDS011;5772;50.940;6.782;2022-08-21T02:21:54;154.70;;;148.50;;
11431;SDS011;5772;50.940;6.782;2022-08-21T02:24:20;159.70;;;153.33;;
11431;SDS011;5772;50.940;6.782;2022-08-21T02:26:45;170.07;;;163.40;;
11431;SDS011;5772;50.940;6.782;2022-08-21T02:29:12;170.67;;;163.67;;
11431;SDS011;5772;50.940;6.782;2022-08-21T02:31:37;168.33;;;161.63;;
11431;SDS011;5772;50.940;6.782;2022-08-21T02:34:03;173.60;;;166.33;;
11431;SDS011;5772;50.940;6.782;2022-08-21T02:36:28;141.87;;;136.27;;
11431;SDS011;5772;50.940;6.782;2022-08-21T02:38:54;167.03;;;160.27;;
11431;SDS011;5772;50.940;6.782;2022-08-21T02:41:20;182.33;;;175.03;;
11431;SDS011;5772;50.940;6.782;2022-08-21T02:43:45;130.10;;;124.70;;
11431;SDS011;5772;50.940;6.782;2022-08-21T02:46:13;112.43;;;107.43;;
11431;SDS011;5772;50.940;6.782;2022-08-21T02:48:40;114.80;;;110.13;;
11431;SDS011;5772;50.940;6.782;2022-08-21T02:51:06;139.73;;;133.63;;
11431;SDS011;5772;50.940;6.782;2022-08-21T02:53:33;182.90;;;175.83;;
11431;SDS011;5772;50.940;6.782;2022-08-21T02:56:00;183.67;;;176.67;;
11431;SDS011;5772;50.940;6.782;2022-08-21T02:58:28;178.30;;;171.40;;
11431;SDS011;5772;50.940;6.782;2022-08-21T03:00:55;167.83;;;161.13;;
11431;SDS011;5772;50.940;6.782;2022-08-21T03:03:22;176.73;;;169.70;;
11431;SDS011;5772;50.940;6.782;2022-08-21T03:05:47;177.90;;;170.77;;
11431;SDS011;5772;50.940;6.782;2022-08-21T03:08:13;177.30;;;169.90;;
11431;SDS011;5772;50.940;6.782;2022-08-21T03:10:40;182.77;;;175.83;;
11431;SDS011;5772;50.940;6.782;2022-08-21T03:13:07;188.50;;;181.13;;
11431;SDS011;5772;50.940;6.782;2022-08-21T03:15:33;171.73;;;164.87;;
11431;SDS011;5772;50.940;6.782;2022-08-21T03:17:59;168.10;;;161.17;;
11431;SDS011;5772;50.940;6.782;2022-08-21T03:20:26;159.90;;;153.50;;
11431;SDS011;5772;50.940;6.782;2022-08-21T03:22:52;157.83;;;151.20;;
11431;SDS011;5772;50.940;6.782;2022-08-21T03:25:19;151.37;;;145.17;;
11431;SDS011;5772;50.940;6.782;2022-08-21T03:27:45;167.93;;;160.83;;
11431;SDS011;5772;50.940;6.782;2022-08-21T03:30:10;147.30;;;141.50;;
11431;SDS011;5772;50.940;6.782;2022-08-21T03:32:36;142.67;;;136.77;;
11431;SDS011;5772;50.940;6.782;2022-08-21T03:35:02;143.83;;;138.17;;
11431;SDS011;5772;50.940;6.782;2022-08-21T03:37:30;123.50;;;118.40;;
11431;SDS011;5772;50.940;6.782;2022-08-21T03:39:55;130.03;;;124.63;;
11431;SDS011;5772;50.940;6.782;2022-08-21T03:42:21;132.77;;;127.13;;
11431;SDS011;5772;50.940;6.782;2022-08-21T03:44:46;154.33;;;147.73;;
11431;SDS011;5772;50.940;6.782;2022-08-21T03:47:12;168.87;;;162.20;;
11431;SDS011;5772;50.940;6.782;2022-08-21T03:49:37;165.40;;;158.60;;
11431;SDS011;5772;50.940;6.782;2022-08-21T03:52:03;174.57;;;167.10;;
11431;SDS011;5772;50.940;6.782;2022-08-21T03:54:30;172.00;;;165.13;;
11431;SDS011;5772;50.940;6.782;2022-08-21T03:56:56;173.83;;;167.00;;
11431;SDS011;5772;50.940;6.782;2022-08-21T03:59:21;160.23;;;153.70;;
11431;SDS011;5772;50.940;6.782;2022-08-21T04:01:51;183.40;;;176.03;;
11431;SDS011;5772;50.940;6.782;2022-08-21T04:04:17;170.37;;;163.67;;
11431;SDS011;5772;50.940;6.782;2022-08-21T04:06:42;156.70;;;150.27;;
11431;SDS011;5772;50.940;6.782;2022-08-21T04:09:07;155.67;;;149.47;;
11431;SDS011;5772;50.940;6.782;2022-08-21T04:11:34;154.63;;;148.50;;
11431;SDS011;5772;50.940;6.782;2022-08-21T04:14:00;150.40;;;144.07;;
11431;SDS011;5772;50.940;6.782;2022-08-21T04:16:25;150.07;;;144.10;;
11431;SDS011;5772;50.940;6.782;2022-08-21T04:18:50;180.43;;;173.37;;
11431;SDS011;5772;50.940;6.782;2022-08-21T04:21:16;128.80;;;123.60;;
11431;SDS011;5772;50.940;6.782;2022-08-21T04:23:41;157.50;;;151.33;;
11431;SDS011;5772;50.940;6.782;2022-08-21T04:26:07;172.07;;;165.33;;
11431;SDS011;5772;50.940;6.782;2022-08-21T04:28:33;189.27;;;182.13;;
11431;SDS011;5772;50.940;6.782;2022-08-21T04:30:59;193.23;;;185.70;;
11431;SDS011;5772;50.940;6.782;2022-08-21T04:33:24;183.23;;;176.13;;
11431;SDS011;5772;50.940;6.782;2022-08-21T04:35:50;170.80;;;164.10;;
11431;SDS011;5772;50.940;6.782;2022-08-21T04:38:15;121.43;;;116.50;;
11431;SDS011;5772;50.940;6.782;2022-08-21T04:40:41;103.40;;;99.10;;
11431;SDS011;5772;50.940;6.782;2022-08-21T04:43:08;75.50;;;72.30;;
11431;SDS011;5772;50.940;6.782;2022-08-21T04:45:36;94.23;;;90.20;;
11431;SDS011;5772;50.940;6.782;2022-08-21T04:48:04;138.90;;;133.43;;
11431;SDS011;5772;50.940;6.782;2022-08-21T04:50:34;142.47;;;136.93;;
11431;SDS011;5772;50.940;6.782;2022-08-21T04:53:01;141.63;;;135.87;;
11431;SDS011;5772;50.940;6.782;2022-08-21T04:55:27;196.03;;;188.27;;
11431;SDS011;5772;50.940;6.782;2022-08-21T04:57:53;225.13;;;216.67;;
11431;SDS011;5772;50.940;6.782;2022-08-21T05:00:19;164.30;;;157.80;;
11431;SDS011;5772;50.940;6.782;2022-08-21T05:02:46;155.03;;;149.00;;
11431;SDS011;5772;50.940;6.782;2022-08-21T05:05:11;208.23;;;200.53;;
11431;SDS011;5772;50.940;6.782;2022-08-21T05:07:37;201.80;;;193.83;;
11431;SDS011;5772;50.940;6.782;2022-08-21T05:10:03;135.37;;;130.00;;
11431;SDS011;5772;50.940;6.782;2022-08-21T05:12:30;131.73;;;126.23;;
11431;SDS011;5772;50.940;6.782;2022-08-21T05:14:55;135.87;;;130.43;;
11431;SDS011;5772;50.940;6.782;2022-08-21T05:17:21;103.83;;;99.33;;
11431;SDS011;5772;50.940;6.782;2022-08-21T05:19:48;91.97;;;88.07;;
11431;SDS011;5772;50.940;6.782;2022-08-21T05:22:18;57.63;;;55.00;;
11431;SDS011;5772;50.940;6.782;2022-08-21T05:24:44;64.50;;;61.83;;
11431;SDS011;5772;50.940;6.782;2022-08-21T05:27:09;55.67;;;53.23;;
11431;SDS011;5772;50.940;6.782;2022-08-21T05:29:35;70.83;;;67.70;;
11431;SDS011;5772;50.940;6.782;2022-08-21T05:32:00;56.50;;;53.97;;
11431;SDS011;5772;50.940;6.782;2022-08-21T05:34:26;81.30;;;77.83;;
11431;SDS011;5772;50.940;6.782;2022-08-21T05:36:52;94.67;;;90.40;;
11431;SDS011;5772;50.940;6.782;2022-08-21T05:39:18;108.97;;;104.57;;
11431;SDS011;5772;50.940;6.782;2022-08-21T05:41:43;141.83;;;136.37;;
11431;SDS011;5772;50.940;6.782;2022-08-21T05:44:09;189.27;;;182.07;;
11431;SDS011;5772;50.940;6.782;2022-08-21T05:46:34;181.70;;;174.87;;
11431;SDS011;5772;50.940;6.782;2022-08-21T05:48:59;197.77;;;190.13;;
11431;SDS011;5772;50.940;6.782;2022-08-21T05:51:25;223.13;;;214.60;;
11431;SDS011;5772;50.940;6.782;2022-08-21T05:53:51;165.77;;;159.33;;
11431;SDS011;5772;50.940;6.782;2022-08-21T05:56:17;117.80;;;113.20;;
11431;SDS011;5772;50.940;6.782;2022-08-21T05:58:42;119.93;;;115.10;;
11431;SDS011;5772;50.940;6.782;2022-08-21T06:01:08;67.87;;;64.97;;
11431;SDS011;5772;50.940;6.782;2022-08-21T06:03:34;36.57;;;34.30;;
11431;SDS011;5772;50.940;6.782;2022-08-21T06:06:01;31.87;;;30.40;;
11431;SDS011;5772;50.940;6.782;2022-08-21T06:08:27;115.23;;;110.73;;
11431;SDS011;5772;50.940;6.782;2022-08-21T06:10:54;81.07;;;77.70;;
11431;SDS011;5772;50.940;6.782;2022-08-21T06:13:21;112.30;;;107.83;;
11431;SDS011;5772;50.940;6.782;2022-08-21T06:15:47;316.90;;;305.57;;
11431;SDS011;5772;50.940;6.782;2022-08-21T06:18:13;329.70;;;317.97;;
11431;SDS011;5772;50.940;6.782;2022-08-21T06:20:41;178.87;;;172.03;;
11431;SDS011;5772;50.940;6.782;2022-08-21T06:23:07;52.43;;;50.10;;
11431;SDS011;5772;50.940;6.782;2022-08-21T06:25:33;54.80;;;52.00;;
11431;SDS011;5772;50.940;6.782;2022-08-21T06:28:03;48.40;;;46.33;;
11431;SDS011;5772;50.940;6.782;2022-08-21T06:30:29;27.93;;;26.50;;
11431;SDS011;5772;50.940;6.782;2022-08-21T06:32:55;36.30;;;34.70;;
11431;SDS011;5772;50.940;6.782;2022-08-21T06:35:20;50.67;;;48.20;;
11431;SDS011;5772;50.940;6.782;2022-08-21T06:37:46;65.60;;;62.50;;
11431;SDS011;5772;50.940;6.782;2022-08-21T06:40:11;55.77;;;53.33;;
11431;SDS011;5772;50.940;6.782;2022-08-21T06:42:37;36.33;;;34.73;;
11431;SDS011;5772;50.940;6.782;2022-08-21T06:45:04;41.20;;;39.23;;
11431;SDS011;5772;50.940;6.782;2022-08-21T06:47:30;23.70;;;22.60;;
11431;SDS011;5772;50.940;6.782;2022-08-21T06:49:56;21.20;;;20.10;;
11431;SDS011;5772;50.940;6.782;2022-08-21T06:52:21;23.50;;;22.50;;
11431;SDS011;5772;50.940;6.782;2022-08-21T06:54:47;22.73;;;21.73;;
11431;SDS011;5772;50.940;6.782;2022-08-21T06:57:12;21.80;;;20.90;;
11431;SDS011;5772;50.940;6.782;2022-08-21T06:59:38;21.50;;;20.35;;
11431;SDS011;5772;50.940;6.782;2022-08-21T07:02:04;19.00;;;18.00;;
11431;SDS011;5772;50.940;6.782;2022-08-21T07:04:30;19.08;;;17.98;;
11431;SDS011;5772;50.940;6.782;2022-08-21T07:06:55;17.45;;;16.55;;
11431;SDS011;5772;50.940;6.782;2022-08-21T07:09:21;16.83;;;16.05;;
11431;SDS011;5772;50.940;6.782;2022-08-21T07:11:47;14.93;;;14.02;;
11431;SDS011;5772;50.940;6.782;2022-08-21T07:14:15;13.75;;;13.05;;
11431;SDS011;5772;50.940;6.782;2022-08-21T07:16:40;14.48;;;13.60;;
11431;SDS011;5772;50.940;6.782;2022-08-21T07:19:07;14.63;;;14.00;;
11431;SDS011;5772;50.940;6.782;2022-08-21T07:21:32;15.68;;;14.98;;
11431;SDS011;5772;50.940;6.782;2022-08-21T07:23:58;16.85;;;15.85;;
11431;SDS011;5772;50.940;6.782;2022-08-21T07:26:23;17.80;;;16.98;;
11431;SDS011;5772;50.940;6.782;2022-08-21T07:28:49;19.45;;;18.35;;
11431;SDS011;5772;50.940;6.782;2022-08-21T07:31:16;18.52;;;17.75;;
11431;SDS011;5772;50.940;6.782;2022-08-21T07:33:43;19.05;;;18.05;;
11431;SDS011;5772;50.940;6.782;2022-08-21T07:36:10;16.48;;;15.77;;
11431;SDS011;5772;50.940;6.782;2022-08-21T07:38:36;17.25;;;16.40;;
11431;SDS011;5772;50.940;6.782;2022-08-21T07:41:01;14.73;;;14.13;;
11431;SDS011;5772;50.940;6.782;2022-08-21T07:43:27;15.20;;;14.55;;
11431;SDS011;5772;50.940;6.782;2022-08-21T07:45:53;17.20;;;16.50;;
11431;SDS011;5772;50.940;6.782;2022-08-21T07:48:19;17.98;;;17.17;;
11431;SDS011;5772;50.940;6.782;2022-08-21T07:50:44;17.30;;;16.38;;
11431;SDS011;5772;50.940;6.782;2022-08-21T07:53:11;16.80;;;16.10;;
11431;SDS011;5772;50.940;6.782;2022-08-21T07:55:37;19.05;;;18.25;;
11431;SDS011;5772;50.940;6.782;2022-08-21T07:58:02;20.85;;;19.75;;
11431;SDS011;5772;50.940;6.782;2022-08-21T08:00:28;17.73;;;16.83;;
11431;SDS011;5772;50.940;6.782;2022-08-21T08:02:54;21.95;;;20.85;;
11431;SDS011;5772;50.940;6.782;2022-08-21T08:05:21;22.85;;;21.42;;
11431;SDS011;5772;50.940;6.782;2022-08-21T08:07:48;21.65;;;20.75;;
11431;SDS011;5772;50.940;6.782;2022-08-21T08:10:15;20.70;;;19.38;;
11431;SDS011;5772;50.940;6.782;2022-08-21T08:12:40;22.63;;;21.63;;
11431;SDS011;5772;50.940;6.782;2022-08-21T08:15:08;19.23;;;18.38;;
11431;SDS011;5772;50.940;6.782;2022-08-21T08:17:34;19.35;;;18.55;;
11431;SDS011;5772;50.940;6.782;2022-08-21T08:20:00;18.92;;;18.10;;
11431;SDS011;5772;50.940;6.782;2022-08-21T08:22:26;18.63;;;17.63;;
11431;SDS011;5772;50.940;6.782;2022-08-21T08:24:51;15.77;;;14.98;;
11431;SDS011;5772;50.940;6.782;2022-08-21T08:27:19;16.20;;;15.35;;
11431;SDS011;5772;50.940;6.782;2022-08-21T08:29:45;17.83;;;17.02;;
11431;SDS011;5772;50.940;6.782;2022-08-21T08:32:11;13.70;;;13.00;;
11431;SDS011;5772;50.940;6.782;2022-08-21T08:34:37;13.90;;;13.40;;
11431;SDS011;5772;50.940;6.782;2022-08-21T08:37:03;14.25;;;13.55;;
11431;SDS011;5772;50.940;6.782;2022-08-21T08:39:30;14.73;;;13.88;;
11431;SDS011;5772;50.940;6.782;2022-08-21T08:41:57;15.23;;;14.40;;
11431;SDS011;5772;50.940;6.782;2022-08-21T08:44:25;16.20;;;15.55;;
11431;SDS011;5772;50.940;6.782;2022-08-21T08:46:51;14.82;;;14.20;;
11431;SDS011;5772;50.940;6.782;2022-08-21T08:49:18;14.68;;;14.05;;
11431;SDS011;5772;50.940;6.782;2022-08-21T08:51:46;16.48;;;15.77;;
11431;SDS011;5772;50.940;6.782;2022-08-21T08:54:13;16.95;;;16.17;;
11431;SDS011;5772;50.940;6.782;2022-08-21T08:56:40;18.42;;;17.15;;
11431;SDS011;5772;50.940;6.782;2022-08-21T08:59:07;19.90;;;19.00;;
11431;SDS011;5772;50.940;6.782;2022-08-21T09:01:35;21.85;;;20.70;;
11431;SDS011;5772;50.940;6.782;2022-08-21T09:04:00;22.42;;;21.42;;
11431;SDS011;5772;50.940;6.782;2022-08-21T09:06:34;23.73;;;22.60;;
11431;SDS011;5772;50.940;6.782;2022-08-21T09:09:09;27.95;;;26.83;;
11431;SDS011;5772;50.940;6.782;2022-08-21T09:11:42;28.27;;;27.08;;
11431;SDS011;5772;50.940;6.782;2022-08-21T09:14:13;31.38;;;29.80;;
11431;SDS011;5772;50.940;6.782;2022-08-21T09:16:47;31.45;;;30.05;;
11431;SDS011;5772;50.940;6.782;2022-08-21T09:19:21;31.83;;;30.42;;
11431;SDS011;5772;50.940;6.782;2022-08-21T09:21:53;30.80;;;29.50;;
11431;SDS011;5772;50.940;6.782;2022-08-21T09:24:26;28.58;;;27.45;;
11431;SDS011;5772;50.940;6.782;2022-08-21T09:26:58;28.90;;;27.60;;
11431;SDS011;5772;50.940;6.782;2022-08-21T09:29:28;33.53;;;31.98;;
11431;SDS011;5772;50.940;6.782;2022-08-21T09:31:58;31.65;;;30.35;;
11431;SDS011;5772;50.940;6.782;2022-08-21T09:34:24;32.75;;;31.25;;
11431;SDS011;5772;50.940;6.782;2022-08-21T09:36:50;29.90;;;28.20;;
11431;SDS011;5772;50.940;6.782;2022-08-21T09:39:22;33.38;;;32.08;;
11431;SDS011;5772;50.940;6.782;2022-08-21T09:41:54;35.17;;;33.67;;
11431;SDS011;5772;50.940;6.782;2022-08-21T09:44:24;35.97;;;34.45;;
11431;SDS011;5772;50.940;6.782;2022-08-21T09:46:51;36.42;;;34.60;;
11431;SDS011;5772;50.940;6.782;2022-08-21T09:49:26;31.80;;;30.45;;
11431;SDS011;5772;50.940;6.782;2022-08-21T09:51:52;29.98;;;28.33;;
11431;SDS011;5772;50.940;6.782;2022-08-21T09:54:21;29.63;;;28.38;;
11431;SDS011;5772;50.940;6.782;2022-08-21T09:56:52;31.75;;;30.27;;
11431;SDS011;5772;50.940;6.782;2022-08-21T09:59:20;29.83;;;28.50;;
11431;SDS011;5772;50.940;6.782;2022-08-21T10:01:53;33.17;;;31.52;;
11431;SDS011;5772;50.940;6.782;2022-08-21T10:04:21;35.15;;;33.65;;
11431;SDS011;5772;50.940;6.782;2022-08-21T10:06:48;34.33;;;32.92;;
11431;SDS011;5772;50.940;6.782;2022-08-21T10:09:13;27.60;;;25.98;;
11431;SDS011;5772;50.940;6.782;2022-08-21T10:11:49;26.85;;;25.55;;
11431;SDS011;5772;50.940;6.782;2022-08-21T10:14:23;29.42;;;28.02;;
11431;SDS011;5772;50.940;6.782;2022-08-21T10:16:57;29.73;;;28.52;;
11431;SDS011;5772;50.940;6.782;2022-08-21T10:19:30;24.48;;;23.48;;
11431;SDS011;5772;50.940;6.782;2022-08-21T10:22:03;25.50;;;24.50;;
11431;SDS011;5772;50.940;6.782;2022-08-21T10:24:33;24.00;;;23.02;;
11431;SDS011;5772;50.940;6.782;2022-08-21T10:27:05;25.65;;;24.55;;
11431;SDS011;5772;50.940;6.782;2022-08-21T10:29:42;25.25;;;24.05;;
11431;SDS011;5772;50.940;6.782;2022-08-21T10:32:14;27.40;;;26.13;;
11431;SDS011;5772;50.940;6.782;2022-08-21T10:34:51;25.00;;;23.80;;
11431;SDS011;5772;50.940;6.782;2022-08-21T10:37:24;27.33;;;26.20;;
11431;SDS011;5772;50.940;6.782;2022-08-21T10:39:57;24.85;;;23.85;;
11431;SDS011;5772;50.940;6.782;2022-08-21T10:42:29;23.75;;;22.77;;
11431;SDS011;5772;50.940;6.782;2022-08-21T10:45:10;24.73;;;23.65;;
11431;SDS011;5772;50.940;6.782;2022-08-21T10:47:41;25.55;;;24.52;;
11431;SDS011;5772;50.940;6.782;2022-08-21T10:50:12;26.48;;;25.27;;
11431;SDS011;5772;50.940;6.782;2022-08-21T10:52:54;26.10;;;24.88;;
11431;SDS011;5772;50.940;6.782;2022-08-21T10:55:31;24.05;;;23.05;;
11431;SDS011;5772;50.940;6.782;2022-08-21T10:57:58;25.10;;;23.63;;
11431;SDS011;5772;50.940;6.782;2022-08-21T11:00:26;27.98;;;26.38;;
11431;SDS011;5772;50.940;6.782;2022-08-21T11:02:57;28.27;;;27.02;;
11431;SDS011;5772;50.940;6.782;2022-08-21T11:05:28;27.42;;;26.02;;
11431;SDS011;5772;50.940;6.782;2022-08-21T11:08:03;24.65;;;23.65;;
11431;SDS011;5772;50.940;6.782;2022-08-21T11:10:33;25.05;;;23.95;;
11431;SDS011;5772;50.940;6.782;2022-08-21T11:13:04;22.73;;;21.75;;
11431;SDS011;5772;50.940;6.782;2022-08-21T11:15:33;22.88;;;21.67;;
11431;SDS011;5772;50.940;6.782;2022-08-21T11:18:04;25.13;;;23.95;;
11431;SDS011;5772;50.940;6.782;2022-08-21T11:20:40;25.00;;;23.60;;
11431;SDS011;5772;50.940;6.782;2022-08-21T11:23:11;24.08;;;22.75;;
11431;SDS011;5772;50.940;6.782;2022-08-21T11:25:42;23.15;;;22.17;;
11431;SDS011;5772;50.940;6.782;2022-08-21T11:28:10;22.50;;;20.85;;
11431;SDS011;5772;50.940;6.782;2022-08-21T11:30:44;20.88;;;19.98;;
11431;SDS011;5772;50.940;6.782;2022-08-21T11:33:17;22.35;;;20.90;;
11431;SDS011;5772;50.940;6.782;2022-08-21T11:35:54;21.08;;;20.15;;
11431;SDS011;5772;50.940;6.782;2022-08-21T11:38:26;20.85;;;19.92;;
11431;SDS011;5772;50.940;6.782;2022-08-21T11:40:55;19.45;;;18.52;;
11431;SDS011;5772;50.940;6.782;2022-08-21T11:43:34;19.45;;;18.63;;
11431;SDS011;5772;50.940;6.782;2022-08-21T11:46:04;19.20;;;18.30;;
11431;SDS011;5772;50.940;6.782;2022-08-21T11:48:44;18.33;;;17.52;;
11431;SDS011;5772;50.940;6.782;2022-08-21T11:51:17;18.67;;;17.98;;
11431;SDS011;5772;50.940;6.782;2022-08-21T11:53:47;19.02;;;18.23;;
11431;SDS011;5772;50.940;6.782;2022-08-21T11:56:15;18.65;;;17.95;;
11431;SDS011;5772;50.940;6.782;2022-08-21T11:58:44;18.92;;;17.88;;
11431;SDS011;5772;50.940;6.782;2022-08-21T12:01:12;17.52;;;16.70;;
11431;SDS011;5772;50.940;6.782;2022-08-21T12:03:41;15.95;;;15.35;;
11431;SDS011;5772;50.940;6.782;2022-08-21T12:06:10;17.35;;;16.55;;
11431;SDS011;5772;50.940;6.782;2022-08-21T12:08:39;18.00;;;17.20;;
11431;SDS011;5772;50.940;6.782;2022-08-21T12:11:06;17.23;;;16.52;;
11431;SDS011;5772;50.940;6.782;2022-08-21T12:13:34;16.98;;;16.27;;
11431;SDS011;5772;50.940;6.782;2022-08-21T12:16:06;18.55;;;17.65;;
11431;SDS011;5772;50.940;6.782;2022-08-21T12:18:32;16.55;;;15.73;;
11431;SDS011;5772;50.940;6.782;2022-08-21T12:21:00;16.75;;;16.08;;
11431;SDS011;5772;50.940;6.782;2022-08-21T12:23:28;18.13;;;16.98;;
11431;SDS011;5772;50.940;6.782;2022-08-21T12:26:09;18.08;;;17.30;;
11431;SDS011;5772;50.940;6.782;2022-08-21T12:28:39;16.50;;;15.85;;
11431;SDS011;5772;50.940;6.782;2022-08-21T12:31:04;17.55;;;16.58;;
11431;SDS011;5772;50.940;6.782;2022-08-21T12:33:42;17.35;;;16.27;;
11431;SDS011;5772;50.940;6.782;2022-08-21T12:36:22;17.15;;;16.20;;
11431;SDS011;5772;50.940;6.782;2022-08-21T12:38:50;18.73;;;17.42;;
11431;SDS011;5772;50.940;6.782;2022-08-21T12:41:19;17.67;;;16.88;;
11431;SDS011;5772;50.940;6.782;2022-08-21T12:43:46;17.92;;;17.00;;
11431;SDS011;5772;50.940;6.782;2022-08-21T12:46:15;16.38;;;15.75;;
11431;SDS011;5772;50.940;6.782;2022-08-21T12:48:42;16.20;;;15.40;;
11431;SDS011;5772;50.940;6.782;2022-08-21T12:51:13;16.48;;;15.60;;
11431;SDS011;5772;50.940;6.782;2022-08-21T12:53:42;16.73;;;15.93;;
11431;SDS011;5772;50.940;6.782;2022-08-21T12:56:10;16.38;;;15.68;;
11431;SDS011;5772;50.940;6.782;2022-08-21T12:58:41;17.42;;;16.63;;
11431;SDS011;5772;50.940;6.782;2022-08-21T13:01:12;18.10;;;17.30;;
11431;SDS011;5772;50.940;6.782;2022-08-21T13:03:42;15.75;;;15.05;;
11431;SDS011;5772;50.940;6.782;2022-08-21T13:06:07;14.88;;;14.20;;
11431;SDS011;5772;50.940;6.782;2022-08-21T13:08:40;14.80;;;14.13;;
11431;SDS011;5772;50.940;6.782;2022-08-21T13:11:05;15.93;;;15.27;;
11431;SDS011;5772;50.940;6.782;2022-08-21T13:13:31;14.98;;;14.13;;
11431;SDS011;5772;50.940;6.782;2022-08-21T13:16:00;15.50;;;14.60;;
11431;SDS011;5772;50.940;6.782;2022-08-21T13:18:28;13.82;;;13.13;;
11431;SDS011;5772;50.940;6.782;2022-08-21T13:21:02;14.15;;;13.50;;
11431;SDS011;5772;50.940;6.782;2022-08-21T13:23:30;14.20;;;13.60;;
11431;SDS011;5772;50.940;6.782;2022-08-21T13:25:56;15.10;;;14.40;;
11431;SDS011;5772;50.940;6.782;2022-08-21T13:28:21;15.88;;;15.10;;
11431;SDS011;5772;50.940;6.782;2022-08-21T13:30:57;14.82;;;14.18;;
11431;SDS011;5772;50.940;6.782;2022-08-21T13:33:24;13.88;;;13.27;;
11431;SDS011;5772;50.940;6.782;2022-08-21T13:35:51;15.30;;;14.50;;
11431;SDS011;5772;50.940;6.782;2022-08-21T13:38:18;15.23;;;14.60;;
11431;SDS011;5772;50.940;6.782;2022-08-21T13:40:45;16.05;;;15.35;;
11431;SDS011;5772;50.940;6.782;2022-08-21T13:43:12;15.55;;;14.85;;
11431;SDS011;5772;50.940;6.782;2022-08-21T13:45:38;14.88;;;14.23;;
11431;SDS011;5772;50.940;6.782;2022-08-21T13:48:04;14.82;;;14.23;;
11431;SDS011;5772;50.940;6.782;2022-08-21T13:50:31;15.13;;;14.23;;
11431;SDS011;5772;50.940;6.782;2022-08-21T13:53:00;16.13;;;15.32;;
11431;SDS011;5772;50.940;6.782;2022-08-21T13:55:33;15.90;;;15.20;;
11431;SDS011;5772;50.940;6.782;2022-08-21T13:58:02;16.13;;;15.48;;
11431;SDS011;5772;50.940;6.782;2022-08-21T14:00:29;15.50;;;14.90;;
11431;SDS011;5772;50.940;6.782;2022-08-21T14:03:00;16.92;;;16.23;;
11431;SDS011;5772;50.940;6.782;2022-08-21T14:05:29;16.08;;;15.23;;
11431;SDS011;5772;50.940;6.782;2022-08-21T14:08:00;15.93;;;15.32;;
11431;SDS011;5772;50.940;6.782;2022-08-21T14:10:29;16.67;;;15.52;;
11431;SDS011;5772;50.940;6.782;2022-08-21T14:12:55;15.30;;;14.68;;
11431;SDS011;5772;50.940;6.782;2022-08-21T14:15:23;14.55;;;13.95;;
11431;SDS011;5772;50.940;6.782;2022-08-21T14:17:50;15.25;;;14.65;;
11431;SDS011;5772;50.940;6.782;2022-08-21T14:20:25;15.10;;;14.43;;
11431;SDS011;5772;50.940;6.782;2022-08-21T14:22:54;15.48;;;14.77;;
11431;SDS011;5772;50.940;6.782;2022-08-21T14:25:27;17.60;;;16.55;;
11431;SDS011;5772;50.940;6.782;2022-08-21T14:27:54;15.48;;;14.77;;